sensor_id;sensor_type;location;lat;lon;timestamp;pressure;altitude;pressure_sealevel;temperature;humidity
61488;BME280;47351;53.326;-6.298;2023-08-17T00:01:38;101851.44;;;14.26;82.68
61488;BME280;47351;53.326;-6.298;2023-08-17T00:04:29;101850.20;;;14.29;82.69
61488;BME280;47351;53.326;-6.298;2023-08-17T00:07:19;101851.67;;;14.32;82.59
61488;BME280;47351;53.326;-6.298;2023-08-17T00:10:20;101847.77;;;14.32;82.26
61488;BME280;47351;53.326;-6.298;2023-08-17T00:13:11;101851.31;;;14.30;82.29
61488;BME280;47351;53.326;-6.298;2023-08-17T00:16:07;101855.20;;;14.28;82.11
61488;BME280;47351;53.326;-6.298;2023-08-17T00:18:58;101858.49;;;14.24;82.04
61488;BME280;47351;53.326;-6.298;2023-08-17T00:21:48;101861.14;;;14.19;81.98
61488;BME280;47351;53.326;-6.298;2023-08-17T00:24:39;101859.52;;;14.13;81.98
61488;BME280;47351;53.326;-6.298;2023-08-17T00:27:32;101857.50;;;14.08;81.93
61488;BME280;47351;53.326;-6.298;2023-08-17T00:30:23;101858.40;;;14.03;82.04
61488;BME280;47351;53.326;-6.298;2023-08-17T00:33:14;101856.77;;;13.98;81.96
61488;BME280;47351;53.326;-6.298;2023-08-17T00:36:05;101853.00;;;13.92;81.98
61488;BME280;47351;53.326;-6.298;2023-08-17T00:38:56;101849.24;;;13.87;82.07
61488;BME280;47351;53.326;-6.298;2023-08-17T00:41:46;101845.25;;;13.82;82.24
61488;BME280;47351;53.326;-6.298;2023-08-17T00:44:37;101844.89;;;13.78;82.30
61488;BME280;47351;53.326;-6.298;2023-08-17T00:47:28;101842.78;;;13.74;82.47
61488;BME280;47351;53.326;-6.298;2023-08-17T00:50:19;101844.61;;;13.70;82.40
61488;BME280;47351;53.326;-6.298;2023-08-17T00:53:09;101839.37;;;13.65;82.58
61488;BME280;47351;53.326;-6.298;2023-08-17T00:56:02;101832.34;;;13.62;82.65
61488;BME280;47351;53.326;-6.298;2023-08-17T00:58:53;101830.91;;;13.60;82.78
61488;BME280;47351;53.326;-6.298;2023-08-17T01:01:47;101835.75;;;13.60;82.95
61488;BME280;47351;53.326;-6.298;2023-08-17T01:04:37;101832.52;;;13.60;82.96
61488;BME280;47351;53.326;-6.298;2023-08-17T01:07:28;101831.33;;;13.61;82.96
61488;BME280;47351;53.326;-6.298;2023-08-17T01:10:19;101830.10;;;13.63;83.01
61488;BME280;47351;53.326;-6.298;2023-08-17T01:13:12;101826.27;;;13.65;83.13
61488;BME280;47351;53.326;-6.298;2023-08-17T01:16:05;101825.11;;;13.67;83.23
61488;BME280;47351;53.326;-6.298;2023-08-17T01:18:59;101817.70;;;13.70;83.19
61488;BME280;47351;53.326;-6.298;2023-08-17T01:21:51;101819.55;;;13.73;83.25
61488;BME280;47351;53.326;-6.298;2023-08-17T01:24:44;101817.16;;;13.74;83.00
61488;BME280;47351;53.326;-6.298;2023-08-17T01:27:39;101815.62;;;13.73;82.95
61488;BME280;47351;53.326;-6.298;2023-08-17T01:30:33;101810.16;;;13.70;82.86
61488;BME280;47351;53.326;-6.298;2023-08-17T01:33:26;101809.33;;;13.68;82.84
61488;BME280;47351;53.326;-6.298;2023-08-17T01:36:22;101805.87;;;13.64;82.78
61488;BME280;47351;53.326;-6.298;2023-08-17T01:39:30;101803.55;;;13.61;82.74
61488;BME280;47351;53.326;-6.298;2023-08-17T01:42:23;101804.52;;;13.56;82.60
61488;BME280;47351;53.326;-6.298;2023-08-17T01:45:16;101806.23;;;13.52;82.63
61488;BME280;47351;53.326;-6.298;2023-08-17T01:48:07;101802.30;;;13.48;82.77
61488;BME280;47351;53.326;-6.298;2023-08-17T01:50:58;101798.27;;;13.43;82.68
61488;BME280;47351;53.326;-6.298;2023-08-17T01:53:52;101795.42;;;13.39;82.73
61488;BME280;47351;53.326;-6.298;2023-08-17T01:56:42;101791.98;;;13.34;82.83
61488;BME280;47351;53.326;-6.298;2023-08-17T01:59:33;101789.67;;;13.30;82.90
61488;BME280;47351;53.326;-6.298;2023-08-17T02:02:24;101790.90;;;13.27;83.07
61488;BME280;47351;53.326;-6.298;2023-08-17T02:05:15;101791.35;;;13.24;83.11
61488;BME280;47351;53.326;-6.298;2023-08-17T02:08:09;101794.61;;;13.21;83.25
61488;BME280;47351;53.326;-6.298;2023-08-17T02:11:05;101788.64;;;13.20;83.27
61488;BME280;47351;53.326;-6.298;2023-08-17T02:13:56;101788.92;;;13.19;83.38
61488;BME280;47351;53.326;-6.298;2023-08-17T02:16:49;101787.29;;;13.20;83.51
61488;BME280;47351;53.326;-6.298;2023-08-17T02:19:43;101788.45;;;13.21;83.69
61488;BME280;47351;53.326;-6.298;2023-08-17T02:22:34;101786.96;;;13.23;83.82
61488;BME280;47351;53.326;-6.298;2023-08-17T02:25:27;101783.52;;;13.25;83.78
61488;BME280;47351;53.326;-6.298;2023-08-17T02:28:24;101784.35;;;13.30;83.82
61488;BME280;47351;53.326;-6.298;2023-08-17T02:31:15;101783.00;;;13.34;84.03
61488;BME280;47351;53.326;-6.298;2023-08-17T02:34:06;101789.11;;;13.39;84.07
61488;BME280;47351;53.326;-6.298;2023-08-17T02:36:57;101784.59;;;13.44;84.11
61488;BME280;47351;53.326;-6.298;2023-08-17T02:40:08;101784.23;;;13.46;83.74
61488;BME280;47351;53.326;-6.298;2023-08-17T02:43:08;101785.19;;;13.47;83.68
61488;BME280;47351;53.326;-6.298;2023-08-17T02:45:59;101786.23;;;13.47;83.64
61488;BME280;47351;53.326;-6.298;2023-08-17T02:48:49;101780.86;;;13.45;83.61
61488;BME280;47351;53.326;-6.298;2023-08-17T02:51:53;101776.41;;;13.43;83.59
61488;BME280;47351;53.326;-6.298;2023-08-17T02:54:44;101769.88;;;13.40;83.55
61488;BME280;47351;53.326;-6.298;2023-08-17T02:57:34;101765.89;;;13.35;83.46
61488;BME280;47351;53.326;-6.298;2023-08-17T03:00:26;101764.66;;;13.31;83.71
61488;BME280;47351;53.326;-6.298;2023-08-17T03:03:19;101761.49;;;13.27;83.87
61488;BME280;47351;53.326;-6.298;2023-08-17T03:06:11;101755.94;;;13.23;83.91
61488;BME280;47351;53.326;-6.298;2023-08-17T03:09:01;101754.77;;;13.20;83.98
61488;BME280;47351;53.326;-6.298;2023-08-17T03:11:52;101747.67;;;13.18;84.32
61488;BME280;47351;53.326;-6.298;2023-08-17T03:14:43;101742.41;;;13.16;84.52
61488;BME280;47351;53.326;-6.298;2023-08-17T03:17:34;101738.60;;;13.15;84.66
61488;BME280;47351;53.326;-6.298;2023-08-17T03:20:28;101734.94;;;13.14;85.09
61488;BME280;47351;53.326;-6.298;2023-08-17T03:23:20;101733.70;;;13.14;85.31
61488;BME280;47351;53.326;-6.298;2023-08-17T03:26:10;101737.65;;;13.14;85.58
61488;BME280;47351;53.326;-6.298;2023-08-17T03:29:04;101734.64;;;13.15;85.86
61488;BME280;47351;53.326;-6.298;2023-08-17T03:32:05;101731.91;;;13.18;86.10
61488;BME280;47351;53.326;-6.298;2023-08-17T03:34:56;101727.20;;;13.20;86.21
61488;BME280;47351;53.326;-6.298;2023-08-17T03:37:46;101727.27;;;13.23;86.48
61488;BME280;47351;53.326;-6.298;2023-08-17T03:40:37;101727.66;;;13.26;86.65
61488;BME280;47351;53.326;-6.298;2023-08-17T03:43:28;101722.17;;;13.31;86.97
61488;BME280;47351;53.326;-6.298;2023-08-17T03:46:18;101721.38;;;13.35;86.98
61488;BME280;47351;53.326;-6.298;2023-08-17T03:49:09;101717.23;;;13.39;87.01
61488;BME280;47351;53.326;-6.298;2023-08-17T03:52:00;101711.95;;;13.44;87.06
61488;BME280;47351;53.326;-6.298;2023-08-17T03:54:53;101710.21;;;13.47;87.20
61488;BME280;47351;53.326;-6.298;2023-08-17T03:57:44;101712.51;;;13.49;87.06
61488;BME280;47351;53.326;-6.298;2023-08-17T04:00:37;101712.69;;;13.49;86.87
61488;BME280;47351;53.326;-6.298;2023-08-17T04:03:33;101711.90;;;13.46;86.59
61488;BME280;47351;53.326;-6.298;2023-08-17T04:06:23;101712.61;;;13.43;86.80
61488;BME280;47351;53.326;-6.298;2023-08-17T04:09:14;101713.77;;;13.40;87.09
61488;BME280;47351;53.326;-6.298;2023-08-17T04:12:05;101711.54;;;13.39;87.48
61488;BME280;47351;53.326;-6.298;2023-08-17T04:14:56;101712.64;;;13.39;87.66
61488;BME280;47351;53.326;-6.298;2023-08-17T04:17:47;101716.02;;;13.37;87.70
61488;BME280;47351;53.326;-6.298;2023-08-17T04:20:38;101716.61;;;13.35;88.01
61488;BME280;47351;53.326;-6.298;2023-08-17T04:23:29;101715.60;;;13.32;88.12
61488;BME280;47351;53.326;-6.298;2023-08-17T04:26:20;101715.36;;;13.29;88.18
61488;BME280;47351;53.326;-6.298;2023-08-17T04:29:14;101708.75;;;13.25;88.31
61488;BME280;47351;53.326;-6.298;2023-08-17T04:32:05;101712.70;;;13.21;88.50
61488;BME280;47351;53.326;-6.298;2023-08-17T04:34:58;101712.29;;;13.18;88.70
61488;BME280;47351;53.326;-6.298;2023-08-17T04:37:49;101712.09;;;13.17;88.97
61488;BME280;47351;53.326;-6.298;2023-08-17T04:40:42;101710.05;;;13.17;89.28
61488;BME280;47351;53.326;-6.298;2023-08-17T04:43:34;101699.73;;;13.18;89.47
61488;BME280;47351;53.326;-6.298;2023-08-17T04:46:25;101698.43;;;13.21;89.82
61488;BME280;47351;53.326;-6.298;2023-08-17T04:49:16;101695.29;;;13.24;89.93
61488;BME280;47351;53.326;-6.298;2023-08-17T04:52:06;101694.70;;;13.28;90.24
61488;BME280;47351;53.326;-6.298;2023-08-17T04:54:57;101693.07;;;13.32;90.24
61488;BME280;47351;53.326;-6.298;2023-08-17T04:57:51;101694.11;;;13.37;90.28
61488;BME280;47351;53.326;-6.298;2023-08-17T05:00:44;101687.46;;;13.43;90.44
61488;BME280;47351;53.326;-6.298;2023-08-17T05:03:35;101683.79;;;13.49;90.51
61488;BME280;47351;53.326;-6.298;2023-08-17T05:06:29;101680.64;;;13.54;90.31
61488;BME280;47351;53.326;-6.298;2023-08-17T05:09:19;101676.30;;;13.56;90.05
61488;BME280;47351;53.326;-6.298;2023-08-17T05:12:10;101668.88;;;13.57;89.87
61488;BME280;47351;53.326;-6.298;2023-08-17T05:15:06;101670.58;;;13.56;89.45
61488;BME280;47351;53.326;-6.298;2023-08-17T05:18:01;101668.65;;;13.54;89.45
61488;BME280;47351;53.326;-6.298;2023-08-17T05:20:54;101667.98;;;13.52;89.42
61488;BME280;47351;53.326;-6.298;2023-08-17T05:24:06;101668.67;;;13.50;89.39
61488;BME280;47351;53.326;-6.298;2023-08-17T05:26:56;101670.95;;;13.47;89.27
61488;BME280;47351;53.326;-6.298;2023-08-17T05:29:50;101667.08;;;13.44;89.39
61488;BME280;47351;53.326;-6.298;2023-08-17T05:32:43;101663.44;;;13.43;89.43
61488;BME280;47351;53.326;-6.298;2023-08-17T05:35:34;101664.37;;;13.42;89.59
61488;BME280;47351;53.326;-6.298;2023-08-17T05:38:25;101666.38;;;13.42;89.75
61488;BME280;47351;53.326;-6.298;2023-08-17T05:41:16;101668.31;;;13.43;89.88
61488;BME280;47351;53.326;-6.298;2023-08-17T05:44:06;101668.48;;;13.44;89.95
61488;BME280;47351;53.326;-6.298;2023-08-17T05:46:57;101665.20;;;13.49;90.22
61488;BME280;47351;53.326;-6.298;2023-08-17T05:49:51;101660.30;;;13.53;90.35
61488;BME280;47351;53.326;-6.298;2023-08-17T05:52:41;101658.36;;;13.60;90.56
61488;BME280;47351;53.326;-6.298;2023-08-17T05:55:35;101656.29;;;13.68;90.56
61488;BME280;47351;53.326;-6.298;2023-08-17T05:58:25;101653.36;;;13.77;90.56
61488;BME280;47351;53.326;-6.298;2023-08-17T06:01:16;101654.86;;;13.87;90.82
61488;BME280;47351;53.326;-6.298;2023-08-17T06:04:06;101653.71;;;13.99;90.85
61488;BME280;47351;53.326;-6.298;2023-08-17T06:06:57;101656.70;;;14.09;90.53
61488;BME280;47351;53.326;-6.298;2023-08-17T06:09:57;101652.88;;;14.20;90.73
61488;BME280;47351;53.326;-6.298;2023-08-17T06:12:56;101651.02;;;14.31;90.59
61488;BME280;47351;53.326;-6.298;2023-08-17T06:15:47;101652.23;;;14.40;90.30
61488;BME280;47351;53.326;-6.298;2023-08-17T06:18:38;101650.92;;;14.48;90.10
61488;BME280;47351;53.326;-6.298;2023-08-17T06:21:33;101647.01;;;14.53;90.05
61488;BME280;47351;53.326;-6.298;2023-08-17T06:24:23;101644.75;;;14.57;90.01
61488;BME280;47351;53.326;-6.298;2023-08-17T06:27:14;101647.16;;;14.62;89.93
61488;BME280;47351;53.326;-6.298;2023-08-17T06:30:06;101649.27;;;14.67;89.82
61488;BME280;47351;53.326;-6.298;2023-08-17T06:32:56;101644.50;;;14.71;89.58
61488;BME280;47351;53.326;-6.298;2023-08-17T06:35:48;101646.35;;;14.76;89.68
61488;BME280;47351;53.326;-6.298;2023-08-17T06:38:39;101650.25;;;14.81;89.71
61488;BME280;47351;53.326;-6.298;2023-08-17T06:41:30;101645.91;;;14.86;89.49
61488;BME280;47351;53.326;-6.298;2023-08-17T06:44:23;101644.20;;;14.90;89.21
61488;BME280;47351;53.326;-6.298;2023-08-17T06:47:14;101639.67;;;14.95;89.29
61488;BME280;47351;53.326;-6.298;2023-08-17T06:50:05;101635.77;;;15.03;89.32
61488;BME280;47351;53.326;-6.298;2023-08-17T06:52:57;101635.84;;;15.11;89.31
61488;BME280;47351;53.326;-6.298;2023-08-17T06:55:47;101630.76;;;15.18;89.23
61488;BME280;47351;53.326;-6.298;2023-08-17T06:58:38;101628.85;;;15.25;89.14
61488;BME280;47351;53.326;-6.298;2023-08-17T07:01:29;101630.18;;;15.35;89.02
61488;BME280;47351;53.326;-6.298;2023-08-17T07:04:19;101620.48;;;15.44;88.90
61488;BME280;47351;53.326;-6.298;2023-08-17T07:07:10;101615.85;;;15.55;88.79
61488;BME280;47351;53.326;-6.298;2023-08-17T07:10:03;101613.21;;;15.70;88.96
61488;BME280;47351;53.326;-6.298;2023-08-17T07:12:53;101612.55;;;15.89;88.95
61488;BME280;47351;53.326;-6.298;2023-08-17T07:15:44;101610.05;;;16.06;88.48
61488;BME280;47351;53.326;-6.298;2023-08-17T07:18:34;101610.39;;;16.22;88.11
61488;BME280;47351;53.326;-6.298;2023-08-17T07:21:25;101609.19;;;16.36;87.64
61488;BME280;47351;53.326;-6.298;2023-08-17T07:24:16;101603.74;;;16.49;87.38
61488;BME280;47351;53.326;-6.298;2023-08-17T07:27:07;101604.98;;;16.59;86.88
61488;BME280;47351;53.326;-6.298;2023-08-17T07:29:57;101606.67;;;16.67;86.42
61488;BME280;47351;53.326;-6.298;2023-08-17T07:32:48;101600.05;;;16.91;86.00
61488;BME280;47351;53.326;-6.298;2023-08-17T07:35:39;101595.50;;;17.33;84.86
61488;BME280;47351;53.326;-6.298;2023-08-17T07:38:29;101591.21;;;17.81;83.85
61488;BME280;47351;53.326;-6.298;2023-08-17T07:41:20;101588.17;;;18.45;82.16
61488;BME280;47351;53.326;-6.298;2023-08-17T07:44:10;101580.66;;;19.14;81.26
61488;BME280;47351;53.326;-6.298;2023-08-17T07:47:01;101577.52;;;19.66;79.19
61488;BME280;47351;53.326;-6.298;2023-08-17T07:49:52;101573.19;;;20.09;77.56
61488;BME280;47351;53.326;-6.298;2023-08-17T07:52:42;101572.68;;;20.37;76.53
61488;BME280;47351;53.326;-6.298;2023-08-17T07:55:33;101569.31;;;20.67;75.63
61488;BME280;47351;53.326;-6.298;2023-08-17T07:58:24;101564.67;;;21.37;73.41
61488;BME280;47351;53.326;-6.298;2023-08-17T08:01:14;101565.29;;;22.20;71.80
61488;BME280;47351;53.326;-6.298;2023-08-17T08:04:05;101560.05;;;22.74;68.89
61488;BME280;47351;53.326;-6.298;2023-08-17T08:06:56;101553.20;;;23.46;66.03
61488;BME280;47351;53.326;-6.298;2023-08-17T08:09:46;101546.70;;;24.11;63.23
61488;BME280;47351;53.326;-6.298;2023-08-17T08:12:37;101543.77;;;24.57;62.07
61488;BME280;47351;53.326;-6.298;2023-08-17T08:15:27;101540.66;;;25.19;62.04
61488;BME280;47351;53.326;-6.298;2023-08-17T08:18:18;101542.41;;;25.76;59.51
61488;BME280;47351;53.326;-6.298;2023-08-17T08:21:08;101539.55;;;26.17;58.03
61488;BME280;47351;53.326;-6.298;2023-08-17T08:23:59;101538.36;;;26.52;57.69
61488;BME280;47351;53.326;-6.298;2023-08-17T08:26:49;101535.58;;;27.34;56.65
61488;BME280;47351;53.326;-6.298;2023-08-17T08:29:42;101533.53;;;28.21;54.34
61488;BME280;47351;53.326;-6.298;2023-08-17T08:32:32;101533.54;;;28.73;52.24
61488;BME280;47351;53.326;-6.298;2023-08-17T08:35:23;101529.64;;;29.05;51.23
61488;BME280;47351;53.326;-6.298;2023-08-17T08:38:15;101528.66;;;29.54;50.28
61488;BME280;47351;53.326;-6.298;2023-08-17T08:41:05;101524.16;;;30.20;48.61
61488;BME280;47351;53.326;-6.298;2023-08-17T08:43:58;101525.52;;;30.64;45.97
61488;BME280;47351;53.326;-6.298;2023-08-17T08:46:48;101530.58;;;31.04;45.51
61488;BME280;47351;53.326;-6.298;2023-08-17T08:49:40;101527.73;;;31.57;45.48
61488;BME280;47351;53.326;-6.298;2023-08-17T08:52:33;101532.02;;;32.08;44.23
61488;BME280;47351;53.326;-6.298;2023-08-17T08:55:26;101537.42;;;32.41;42.21
61488;BME280;47351;53.326;-6.298;2023-08-17T08:58:18;101533.70;;;32.77;41.54
61488;BME280;47351;53.326;-6.298;2023-08-17T09:01:08;101530.37;;;33.09;40.67
61488;BME280;47351;53.326;-6.298;2023-08-17T09:04:00;101532.60;;;33.35;39.93
61488;BME280;47351;53.326;-6.298;2023-08-17T09:06:51;101523.94;;;33.74;39.59
61488;BME280;47351;53.326;-6.298;2023-08-17T09:09:42;101517.64;;;34.28;38.78
61488;BME280;47351;53.326;-6.298;2023-08-17T09:12:32;101520.23;;;34.44;37.95
61488;BME280;47351;53.326;-6.298;2023-08-17T09:15:29;101518.61;;;34.36;37.70
61488;BME280;47351;53.326;-6.298;2023-08-17T09:18:20;101521.07;;;34.60;37.66
61488;BME280;47351;53.326;-6.298;2023-08-17T09:21:21;101517.95;;;35.23;36.92
61488;BME280;47351;53.326;-6.298;2023-08-17T09:24:12;101506.64;;;35.50;35.69
61488;BME280;47351;53.326;-6.298;2023-08-17T09:27:03;101500.64;;;35.56;35.41
61488;BME280;47351;53.326;-6.298;2023-08-17T09:30:02;101504.33;;;34.85;35.16
61488;BME280;47351;53.326;-6.298;2023-08-17T09:32:53;101504.88;;;34.14;34.75
61488;BME280;47351;53.326;-6.298;2023-08-17T09:35:44;101493.42;;;34.06;34.93
61488;BME280;47351;53.326;-6.298;2023-08-17T09:38:34;101491.73;;;33.98;35.04
61488;BME280;47351;53.326;-6.298;2023-08-17T09:41:27;101487.56;;;34.09;35.25
61488;BME280;47351;53.326;-6.298;2023-08-17T09:44:17;101478.14;;;34.24;34.01
61488;BME280;47351;53.326;-6.298;2023-08-17T09:47:08;101474.57;;;34.21;33.70
61488;BME280;47351;53.326;-6.298;2023-08-17T09:50:00;101473.15;;;34.59;33.86
61488;BME280;47351;53.326;-6.298;2023-08-17T09:52:53;101471.40;;;34.95;32.87
61488;BME280;47351;53.326;-6.298;2023-08-17T09:55:44;101468.61;;;34.35;32.39
61488;BME280;47351;53.326;-6.298;2023-08-17T09:58:35;101469.70;;;32.99;33.43
61488;BME280;47351;53.326;-6.298;2023-08-17T10:01:26;101468.58;;;32.09;34.48
61488;BME280;47351;53.326;-6.298;2023-08-17T10:04:20;101466.16;;;32.27;34.96
61488;BME280;47351;53.326;-6.298;2023-08-17T10:07:10;101464.86;;;33.27;34.68
61488;BME280;47351;53.326;-6.298;2023-08-17T10:10:04;101456.61;;;33.90;34.30
61488;BME280;47351;53.326;-6.298;2023-08-17T10:12:58;101454.11;;;33.96;33.26
61488;BME280;47351;53.326;-6.298;2023-08-17T10:15:55;101458.61;;;33.21;33.80
61488;BME280;47351;53.326;-6.298;2023-08-17T10:18:49;101459.15;;;32.40;34.49
61488;BME280;47351;53.326;-6.298;2023-08-17T10:21:42;101456.00;;;31.61;35.21
61488;BME280;47351;53.326;-6.298;2023-08-17T10:24:34;101456.94;;;31.39;35.51
61488;BME280;47351;53.326;-6.298;2023-08-17T10:27:27;101450.84;;;31.98;35.13
61488;BME280;47351;53.326;-6.298;2023-08-17T10:30:17;101446.08;;;32.14;34.82
61488;BME280;47351;53.326;-6.298;2023-08-17T10:33:08;101443.99;;;32.48;34.13
61488;BME280;47351;53.326;-6.298;2023-08-17T10:35:59;101439.63;;;32.84;34.24
61488;BME280;47351;53.326;-6.298;2023-08-17T10:39:03;101441.66;;;32.46;34.33
61488;BME280;47351;53.326;-6.298;2023-08-17T10:42:08;101440.49;;;32.57;34.55
61488;BME280;47351;53.326;-6.298;2023-08-17T10:44:58;101436.72;;;33.14;33.81
61488;BME280;47351;53.326;-6.298;2023-08-17T10:47:50;101433.60;;;33.32;33.69
61488;BME280;47351;53.326;-6.298;2023-08-17T10:50:59;101425.54;;;33.68;33.48
61488;BME280;47351;53.326;-6.298;2023-08-17T10:53:50;101422.10;;;34.16;32.71
61488;BME280;47351;53.326;-6.298;2023-08-17T10:56:43;101426.33;;;34.61;32.27
61488;BME280;47351;53.326;-6.298;2023-08-17T10:59:34;101422.00;;;35.17;31.49
61488;BME280;47351;53.326;-6.298;2023-08-17T11:02:25;101422.95;;;35.86;30.66
61488;BME280;47351;53.326;-6.298;2023-08-17T11:05:21;101419.33;;;36.05;29.74
61488;BME280;47351;53.326;-6.298;2023-08-17T11:08:27;101420.34;;;36.03;29.61
61488;BME280;47351;53.326;-6.298;2023-08-17T11:11:19;101419.55;;;36.69;29.78
61488;BME280;47351;53.326;-6.298;2023-08-17T11:14:10;101419.66;;;36.49;29.12
61488;BME280;47351;53.326;-6.298;2023-08-17T11:17:02;101421.24;;;35.64;29.02
61488;BME280;47351;53.326;-6.298;2023-08-17T11:19:54;101423.77;;;34.91;29.50
61488;BME280;47351;53.326;-6.298;2023-08-17T11:22:44;101418.69;;;35.29;29.86
61488;BME280;47351;53.326;-6.298;2023-08-17T11:25:36;101418.96;;;36.04;29.32
61488;BME280;47351;53.326;-6.298;2023-08-17T11:28:29;101422.22;;;36.36;29.09
61488;BME280;47351;53.326;-6.298;2023-08-17T11:31:22;101418.33;;;36.52;28.61
61488;BME280;47351;53.326;-6.298;2023-08-17T11:34:15;101414.73;;;35.85;28.65
61488;BME280;47351;53.326;-6.298;2023-08-17T11:37:05;101415.80;;;35.08;29.16
61488;BME280;47351;53.326;-6.298;2023-08-17T11:39:56;101413.49;;;35.03;29.38
61488;BME280;47351;53.326;-6.298;2023-08-17T11:42:46;101415.35;;;36.24;28.64
61488;BME280;47351;53.326;-6.298;2023-08-17T11:45:38;101413.88;;;37.46;27.75
61488;BME280;47351;53.326;-6.298;2023-08-17T11:48:30;101412.08;;;38.37;25.92
61488;BME280;47351;53.326;-6.298;2023-08-17T11:51:29;101409.42;;;38.82;25.33
61488;BME280;47351;53.326;-6.298;2023-08-17T11:54:20;101406.44;;;38.99;25.17
61488;BME280;47351;53.326;-6.298;2023-08-17T11:57:11;101400.36;;;39.74;24.50
61488;BME280;47351;53.326;-6.298;2023-08-17T12:00:02;101393.93;;;40.32;24.62
61488;BME280;47351;53.326;-6.298;2023-08-17T12:02:58;101396.67;;;41.03;23.67
61488;BME280;47351;53.326;-6.298;2023-08-17T12:05:48;101391.65;;;41.78;23.44
61488;BME280;47351;53.326;-6.298;2023-08-17T12:08:42;101384.86;;;42.58;23.01
61488;BME280;47351;53.326;-6.298;2023-08-17T12:11:35;101380.53;;;42.24;22.00
61488;BME280;47351;53.326;-6.298;2023-08-17T12:14:25;101387.33;;;39.87;22.78
61488;BME280;47351;53.326;-6.298;2023-08-17T12:17:17;101389.03;;;37.33;24.69
61488;BME280;47351;53.326;-6.298;2023-08-17T12:20:08;101388.95;;;34.82;27.11
61488;BME280;47351;53.326;-6.298;2023-08-17T12:22:59;101398.21;;;32.77;29.24
61488;BME280;47351;53.326;-6.298;2023-08-17T12:25:53;101391.02;;;31.15;31.38
61488;BME280;47351;53.326;-6.298;2023-08-17T12:28:44;101392.55;;;29.87;33.13
61488;BME280;47351;53.326;-6.298;2023-08-17T12:31:35;101393.45;;;29.15;34.73
61488;BME280;47351;53.326;-6.298;2023-08-17T12:34:25;101397.48;;;28.92;35.48
61488;BME280;47351;53.326;-6.298;2023-08-17T12:37:19;101390.80;;;29.04;36.01
61488;BME280;47351;53.326;-6.298;2023-08-17T12:40:11;101390.31;;;29.13;36.32
61488;BME280;47351;53.326;-6.298;2023-08-17T12:43:01;101390.92;;;29.21;36.47
61488;BME280;47351;53.326;-6.298;2023-08-17T12:45:52;101394.52;;;29.61;36.34
61488;BME280;47351;53.326;-6.298;2023-08-17T12:48:43;101388.11;;;31.10;34.84
61488;BME280;47351;53.326;-6.298;2023-08-17T12:51:33;101383.55;;;32.86;33.32
61488;BME280;47351;53.326;-6.298;2023-08-17T12:54:24;101383.05;;;33.24;32.36
61488;BME280;47351;53.326;-6.298;2023-08-17T12:57:14;101380.41;;;33.02;31.93
61488;BME280;47351;53.326;-6.298;2023-08-17T13:00:06;101379.72;;;33.10;31.94
61488;BME280;47351;53.326;-6.298;2023-08-17T13:02:57;101374.14;;;32.95;31.80
61488;BME280;47351;53.326;-6.298;2023-08-17T13:05:48;101375.56;;;33.83;31.58
61488;BME280;47351;53.326;-6.298;2023-08-17T13:08:39;101373.06;;;34.66;31.03
61488;BME280;47351;53.326;-6.298;2023-08-17T13:11:30;101371.93;;;35.00;29.90
61488;BME280;47351;53.326;-6.298;2023-08-17T13:14:20;101364.79;;;34.49;30.02
61488;BME280;47351;53.326;-6.298;2023-08-17T13:17:12;101356.94;;;33.90;30.11
61488;BME280;47351;53.326;-6.298;2023-08-17T13:20:04;101362.30;;;33.34;30.69
61488;BME280;47351;53.326;-6.298;2023-08-17T13:22:55;101360.40;;;32.93;31.47
61488;BME280;47351;53.326;-6.298;2023-08-17T13:25:45;101364.73;;;32.09;32.60
61488;BME280;47351;53.326;-6.298;2023-08-17T13:28:36;101356.26;;;31.60;33.09
61488;BME280;47351;53.326;-6.298;2023-08-17T13:31:26;101353.81;;;30.77;34.30
61488;BME280;47351;53.326;-6.298;2023-08-17T13:34:17;101352.77;;;30.10;35.28
61488;BME280;47351;53.326;-6.298;2023-08-17T13:37:08;101349.67;;;30.42;35.29
61488;BME280;47351;53.326;-6.298;2023-08-17T13:39:58;101348.21;;;31.26;34.58
61488;BME280;47351;53.326;-6.298;2023-08-17T13:42:49;101351.39;;;31.92;34.43
61488;BME280;47351;53.326;-6.298;2023-08-17T13:45:40;101344.63;;;33.21;33.81
61488;BME280;47351;53.326;-6.298;2023-08-17T13:48:30;101342.59;;;33.57;32.86
61488;BME280;47351;53.326;-6.298;2023-08-17T13:51:21;101334.33;;;32.96;32.46
61488;BME280;47351;53.326;-6.298;2023-08-17T13:54:11;101341.58;;;31.49;33.70
61488;BME280;47351;53.326;-6.298;2023-08-17T13:57:02;101338.74;;;30.12;35.13
61488;BME280;47351;53.326;-6.298;2023-08-17T13:59:53;101337.91;;;28.80;36.82
61488;BME280;47351;53.326;-6.298;2023-08-17T14:02:43;101337.02;;;27.75;38.74
61488;BME280;47351;53.326;-6.298;2023-08-17T14:05:34;101334.37;;;27.49;39.64
61488;BME280;47351;53.326;-6.298;2023-08-17T14:08:25;101331.85;;;27.55;40.23
61488;BME280;47351;53.326;-6.298;2023-08-17T14:11:15;101334.44;;;27.35;40.91
61488;BME280;47351;53.326;-6.298;2023-08-17T14:14:05;101335.83;;;26.90;41.76
61488;BME280;47351;53.326;-6.298;2023-08-17T14:16:58;101334.19;;;26.47;42.30
61488;BME280;47351;53.326;-6.298;2023-08-17T14:19:49;101332.67;;;26.26;43.00
61488;BME280;47351;53.326;-6.298;2023-08-17T14:22:39;101331.07;;;26.65;42.83
61488;BME280;47351;53.326;-6.298;2023-08-17T14:25:29;101324.04;;;27.21;42.41
61488;BME280;47351;53.326;-6.298;2023-08-17T14:28:20;101319.85;;;27.68;42.13
61488;BME280;47351;53.326;-6.298;2023-08-17T14:31:11;101295.09;;;28.28;41.09
61488;BME280;47351;53.326;-6.298;2023-08-17T14:34:04;101293.13;;;28.23;41.10
61488;BME280;47351;53.326;-6.298;2023-08-17T14:36:55;101299.59;;;27.87;41.59
61488;BME280;47351;53.326;-6.298;2023-08-17T14:39:46;101304.58;;;27.56;41.88
61488;BME280;47351;53.326;-6.298;2023-08-17T14:42:36;101308.38;;;27.00;42.95
61488;BME280;47351;53.326;-6.298;2023-08-17T14:45:27;101309.48;;;26.69;43.86
61488;BME280;47351;53.326;-6.298;2023-08-17T14:48:17;101309.15;;;25.93;44.97